createdAt,value
2022-10-25T00:00:08.484Z,0.00
2022-10-25T00:01:08.493Z,0.00
2022-10-25T00:02:08.594Z,0.00
2022-10-25T00:03:08.434Z,0.00
2022-10-25T00:04:08.475Z,0.00
2022-10-25T00:05:08.416Z,0.00
2022-10-25T00:06:08.424Z,0.00
2022-10-25T00:07:08.450Z,0.00
2022-10-25T00:08:08.380Z,0.00
2022-10-25T00:09:08.377Z,0.00
2022-10-25T00:10:08.395Z,0.00
2022-10-25T00:11:08.359Z,0.00
2022-10-25T00:12:08.368Z,0.00
2022-10-25T00:13:08.331Z,0.00
2022-10-25T00:14:08.358Z,0.00
2022-10-25T00:15:08.327Z,0.00
2022-10-25T00:16:08.312Z,0.00
2022-10-25T00:17:08.295Z,0.00
2022-10-25T00:18:08.285Z,0.00
2022-10-25T00:19:08.300Z,0.00
2022-10-25T00:20:08.254Z,0.00
2022-10-25T00:21:08.245Z,0.00
2022-10-25T00:22:08.232Z,0.00
2022-10-25T00:23:08.223Z,0.00
2022-10-25T00:24:08.236Z,0.00
2022-10-25T00:25:08.233Z,0.00
2022-10-25T00:26:08.189Z,0.00
2022-10-25T00:27:08.180Z,0.00
2022-10-25T00:28:08.195Z,0.00
2022-10-25T00:29:08.161Z,0.00
2022-10-25T00:30:08.160Z,0.00
2022-10-25T00:31:08.154Z,0.00
2022-10-25T00:32:08.125Z,0.00
2022-10-25T00:33:08.123Z,0.00
2022-10-25T00:34:08.102Z,0.00
2022-10-25T00:35:08.135Z,0.00
2022-10-25T00:36:08.077Z,0.00
2022-10-25T00:37:08.076Z,0.00
2022-10-25T00:38:08.067Z,0.00
2022-10-25T00:39:08.062Z,0.00
2022-10-25T00:40:08.033Z,0.00
2022-10-25T00:41:08.111Z,0.00
2022-10-25T00:42:08.031Z,0.00
2022-10-25T00:43:08.003Z,0.00
2022-10-25T00:44:08.028Z,0.00
2022-10-25T00:45:08.012Z,0.00
2022-10-25T00:46:07.984Z,0.00
2022-10-25T00:47:07.993Z,0.00
2022-10-25T00:48:07.948Z,0.00
2022-10-25T00:49:07.952Z,0.00
2022-10-25T00:50:07.948Z,0.00
2022-10-25T00:51:07.997Z,0.00
2022-10-25T00:52:07.904Z,0.00
2022-10-25T00:53:07.912Z,0.00
2022-10-25T00:54:07.882Z,0.00
2022-10-25T00:55:07.917Z,0.00
2022-10-25T00:56:07.887Z,0.00
2022-10-25T00:57:07.853Z,0.00
2022-10-25T00:58:07.856Z,0.00
2022-10-25T00:59:07.851Z,0.00
2022-10-25T01:00:07.818Z,0.00
2022-10-25T01:01:07.877Z,0.00
2022-10-25T01:02:07.897Z,0.00
2022-10-25T01:03:07.829Z,0.00
2022-10-25T01:04:07.779Z,0.00
2022-10-25T01:05:07.775Z,0.00
2022-10-25T01:06:07.799Z,0.00
2022-10-25T01:07:07.753Z,0.00
2022-10-25T01:08:07.731Z,0.00
2022-10-25T01:09:07.726Z,0.00
2022-10-25T01:10:07.723Z,0.00
2022-10-25T01:11:07.794Z,0.00
2022-10-25T01:12:07.692Z,0.00
2022-10-25T01:13:07.693Z,0.00
2022-10-25T01:14:07.665Z,0.00
2022-10-25T01:15:07.661Z,0.00
2022-10-25T01:16:07.654Z,0.00
2022-10-25T01:17:07.651Z,0.00
2022-10-25T01:18:07.627Z,0.00
2022-10-25T01:19:07.630Z,0.00
2022-10-25T01:20:07.633Z,0.00
2022-10-25T01:21:07.603Z,0.00
2022-10-25T01:22:07.598Z,0.00
2022-10-25T01:23:07.585Z,0.00
2022-10-25T01:24:07.569Z,0.00
2022-10-25T01:25:07.545Z,0.00
2022-10-25T01:26:07.563Z,0.00
2022-10-25T01:27:07.553Z,0.00
2022-10-25T01:28:07.545Z,0.00
2022-10-25T01:29:07.504Z,0.00
2022-10-25T01:30:07.515Z,0.00
2022-10-25T01:31:07.496Z,0.00
2022-10-25T01:32:07.510Z,0.00
2022-10-25T01:33:07.459Z,0.00
2022-10-25T01:34:07.455Z,0.00
2022-10-25T01:35:07.484Z,0.00
2022-10-25T01:36:07.470Z,0.00
2022-10-25T01:37:07.415Z,0.00
2022-10-25T01:38:07.406Z,0.00
2022-10-25T01:39:07.460Z,0.00
2022-10-25T01:40:07.394Z,0.00
2022-10-25T01:41:07.399Z,0.00
2022-10-25T01:42:07.385Z,0.00
2022-10-25T01:43:07.358Z,0.00
2022-10-25T01:44:07.338Z,0.00
2022-10-25T01:45:07.335Z,0.00
2022-10-25T01:46:07.336Z,0.00
2022-10-25T01:47:07.337Z,0.00
2022-10-25T01:48:07.294Z,0.00
2022-10-25T01:49:07.324Z,0.00
2022-10-25T01:50:07.281Z,0.00
2022-10-25T01:51:07.294Z,0.00
2022-10-25T01:52:07.269Z,0.00
2022-10-25T01:53:07.256Z,0.00
2022-10-25T01:54:07.229Z,0.00
2022-10-25T01:55:07.240Z,0.00
2022-10-25T01:56:07.221Z,0.00
2022-10-25T01:57:07.210Z,0.00
2022-10-25T01:58:07.209Z,0.00
2022-10-25T01:59:07.177Z,0.00
2022-10-25T02:00:07.197Z,0.00
2022-10-25T02:01:07.371Z,0.00
2022-10-25T02:02:07.158Z,0.00
2022-10-25T02:03:07.141Z,0.00
2022-10-25T02:04:07.154Z,0.00
2022-10-25T02:05:07.163Z,0.00
2022-10-25T02:06:07.107Z,0.00
2022-10-25T02:07:07.141Z,0.00
2022-10-25T02:08:07.093Z,0.00
2022-10-25T02:09:07.097Z,0.00
2022-10-25T02:10:07.154Z,0.00
2022-10-25T02:11:07.050Z,0.00
2022-10-25T02:12:07.036Z,0.00
2022-10-25T02:13:07.044Z,0.00
2022-10-25T02:14:07.025Z,0.00
2022-10-25T02:15:07.025Z,0.00
2022-10-25T02:16:07.016Z,0.00
2022-10-25T02:17:06.992Z,0.00
2022-10-25T02:18:06.975Z,0.00
2022-10-25T02:19:06.976Z,0.00
2022-10-25T02:20:06.963Z,0.00
2022-10-25T02:21:06.948Z,0.00
2022-10-25T02:22:06.929Z,0.00
2022-10-25T02:23:06.932Z,0.00
2022-10-25T02:24:06.933Z,0.00
2022-10-25T02:25:06.892Z,0.00
2022-10-25T02:26:06.920Z,0.00
2022-10-25T02:27:06.925Z,0.00
2022-10-25T02:28:06.860Z,0.00
2022-10-25T02:29:06.858Z,0.00
2022-10-25T02:30:06.852Z,0.00
2022-10-25T02:31:06.837Z,0.00
2022-10-25T02:32:06.835Z,0.00
2022-10-25T02:33:06.803Z,0.00
2022-10-25T02:34:06.806Z,0.00
2022-10-25T02:35:06.838Z,0.00
2022-10-25T02:36:06.798Z,0.00
2022-10-25T02:37:06.790Z,0.00
2022-10-25T02:38:06.773Z,0.00
2022-10-25T02:39:06.777Z,0.00
2022-10-25T02:40:06.728Z,0.00
2022-10-25T02:41:06.724Z,0.00
2022-10-25T02:42:06.740Z,0.00
2022-10-25T02:43:06.769Z,0.00
2022-10-25T02:44:06.709Z,0.00
2022-10-25T02:45:06.674Z,0.00
2022-10-25T02:46:06.662Z,0.00
2022-10-25T02:47:06.655Z,0.00
2022-10-25T02:48:06.666Z,0.00
2022-10-25T02:49:06.632Z,0.00
2022-10-25T02:50:06.642Z,0.00
2022-10-25T02:51:06.611Z,0.00
2022-10-25T02:52:06.598Z,0.00
2022-10-25T02:53:06.589Z,0.00
2022-10-25T02:54:06.618Z,0.00
2022-10-25T02:55:06.607Z,0.00
2022-10-25T02:56:06.572Z,0.00
2022-10-25T02:57:06.539Z,0.00
2022-10-25T02:58:06.590Z,0.00
2022-10-25T02:59:06.522Z,0.00
2022-10-25T03:00:06.604Z,0.00
2022-10-25T03:01:06.633Z,0.00
2022-10-25T03:02:06.511Z,0.00
2022-10-25T03:03:06.477Z,0.00
2022-10-25T03:04:06.488Z,0.00
2022-10-25T03:05:06.470Z,0.00
2022-10-25T03:06:06.467Z,0.00
2022-10-25T03:07:06.457Z,0.00
2022-10-25T03:08:06.451Z,0.00
2022-10-25T03:09:06.460Z,0.00
2022-10-25T03:10:06.426Z,0.00
2022-10-25T03:11:06.420Z,0.00
2022-10-25T03:12:06.428Z,0.00
2022-10-25T03:13:06.399Z,0.00
2022-10-25T03:14:06.398Z,0.00
2022-10-25T03:15:06.343Z,0.00
2022-10-25T03:16:06.337Z,0.00
2022-10-25T03:17:06.359Z,0.00
2022-10-25T03:18:06.332Z,0.00
2022-10-25T03:19:06.310Z,0.00
2022-10-25T03:20:06.289Z,0.00
2022-10-25T03:21:06.306Z,0.00
2022-10-25T03:22:06.271Z,0.00
2022-10-25T03:23:06.267Z,0.00
2022-10-25T03:24:06.262Z,0.00
2022-10-25T03:25:06.314Z,0.00
2022-10-25T03:26:06.272Z,0.00
2022-10-25T03:27:06.231Z,0.00
2022-10-25T03:28:06.205Z,0.00
2022-10-25T03:29:06.220Z,0.00
2022-10-25T03:30:06.199Z,0.00
2022-10-25T03:31:06.168Z,0.00
2022-10-25T03:32:06.187Z,0.00
2022-10-25T03:33:06.154Z,0.00
2022-10-25T03:34:06.164Z,0.00
2022-10-25T03:35:06.146Z,0.00
2022-10-25T03:36:06.140Z,0.00
2022-10-25T03:37:06.122Z,0.00
2022-10-25T03:38:06.103Z,0.00
2022-10-25T03:39:06.103Z,0.00
2022-10-25T03:40:06.085Z,0.00
2022-10-25T03:41:06.069Z,0.00
2022-10-25T03:42:06.096Z,0.00
2022-10-25T03:43:06.062Z,0.00
2022-10-25T03:44:06.031Z,0.00
2022-10-25T03:45:06.018Z,0.00
2022-10-25T03:46:06.028Z,0.00
2022-10-25T03:47:06.002Z,0.00
2022-10-25T03:48:05.990Z,0.00
2022-10-25T03:49:06.006Z,0.00
2022-10-25T03:50:05.977Z,0.00
2022-10-25T03:51:05.951Z,0.00
2022-10-25T03:52:05.955Z,0.00
2022-10-25T03:53:06.104Z,0.00
2022-10-25T03:54:05.945Z,0.00
2022-10-25T03:55:05.944Z,0.00
2022-10-25T03:56:05.922Z,0.00
2022-10-25T03:57:05.908Z,0.00
2022-10-25T03:58:05.912Z,0.00
2022-10-25T03:59:05.889Z,0.00
2022-10-25T04:00:05.878Z,0.00
2022-10-25T04:01:05.982Z,0.00
2022-10-25T04:02:05.863Z,0.00
2022-10-25T04:04:05.824Z,0.00
2022-10-25T04:05:05.810Z,0.00
2022-10-25T04:06:05.809Z,0.00
2022-10-25T04:07:05.787Z,0.00
2022-10-25T04:08:05.794Z,0.00
2022-10-25T04:09:05.758Z,0.00
2022-10-25T04:10:05.746Z,0.00
2022-10-25T04:11:05.741Z,0.00
2022-10-25T04:12:05.722Z,0.00
2022-10-25T04:13:05.706Z,0.00
2022-10-25T04:14:05.726Z,0.00
2022-10-25T04:15:05.721Z,0.00
2022-10-25T04:16:05.680Z,0.00
2022-10-25T04:17:05.679Z,0.00
2022-10-25T04:18:05.687Z,0.00
2022-10-25T04:19:05.996Z,0.00
2022-10-25T04:20:05.634Z,0.00
2022-10-25T04:21:05.622Z,0.00
2022-10-25T04:22:05.618Z,0.00
2022-10-25T04:23:05.618Z,0.00
2022-10-25T04:24:05.596Z,0.00
2022-10-25T04:25:05.581Z,0.00
2022-10-25T04:26:05.592Z,0.00
2022-10-25T04:27:05.556Z,0.00
2022-10-25T04:28:05.550Z,0.00
2022-10-25T04:29:05.545Z,0.00
2022-10-25T04:30:05.575Z,0.00
2022-10-25T04:31:05.573Z,0.00
2022-10-25T04:32:05.638Z,0.00
2022-10-25T04:33:05.504Z,0.00
2022-10-25T04:34:05.500Z,0.00
2022-10-25T04:35:05.465Z,0.00
2022-10-25T04:36:05.502Z,0.00
2022-10-25T04:37:05.453Z,0.00
2022-10-25T04:38:05.449Z,0.00
2022-10-25T04:39:05.454Z,0.00
2022-10-25T04:40:05.418Z,0.00
2022-10-25T04:41:05.406Z,0.00
2022-10-25T04:42:05.458Z,0.00
2022-10-25T04:43:05.400Z,0.00
2022-10-25T04:44:05.389Z,0.00
2022-10-25T04:45:05.355Z,0.00
2022-10-25T04:46:05.369Z,0.00
2022-10-25T04:47:05.355Z,0.00
2022-10-25T04:48:05.349Z,0.00
2022-10-25T04:49:05.318Z,0.00
2022-10-25T04:50:05.301Z,0.00
2022-10-25T04:51:05.325Z,0.00
2022-10-25T04:52:05.292Z,0.00
2022-10-25T04:53:05.266Z,0.00
2022-10-25T04:54:05.259Z,0.00
2022-10-25T04:55:05.275Z,0.00
2022-10-25T04:56:05.236Z,0.00
2022-10-25T04:57:05.245Z,0.00
2022-10-25T04:58:05.239Z,0.00
2022-10-25T04:59:05.203Z,0.00
2022-10-25T05:00:05.199Z,0.00
2022-10-25T05:01:05.284Z,0.00
2022-10-25T05:02:05.190Z,0.00
2022-10-25T05:03:07.253Z,0.00
2022-10-25T05:04:05.176Z,0.00
2022-10-25T05:05:05.141Z,0.00
2022-10-25T05:06:05.134Z,0.00
2022-10-25T05:07:05.124Z,0.00
2022-10-25T05:08:05.130Z,0.00
2022-10-25T05:09:05.111Z,0.00
2022-10-25T05:10:05.089Z,0.00
2022-10-25T05:11:05.093Z,0.00
2022-10-25T05:12:05.064Z,0.00
2022-10-25T05:13:05.081Z,0.00
2022-10-25T05:14:05.038Z,0.00
2022-10-25T05:15:05.045Z,0.00
2022-10-25T05:16:05.015Z,0.00
2022-10-25T05:17:05.024Z,0.00
2022-10-25T05:18:04.995Z,0.00
2022-10-25T05:19:04.999Z,0.00
2022-10-25T05:20:05.002Z,0.00
2022-10-25T05:21:04.968Z,0.00
2022-10-25T05:22:04.977Z,0.00
2022-10-25T05:23:04.936Z,0.00
2022-10-25T05:24:04.935Z,0.00
2022-10-25T05:25:04.915Z,0.00
2022-10-25T05:26:04.916Z,0.00
2022-10-25T05:27:04.917Z,0.00
2022-10-25T05:28:04.886Z,0.00
2022-10-25T05:29:10.001Z,0.00
2022-10-25T05:30:04.903Z,0.00
2022-10-25T05:31:04.927Z,0.00
2022-10-25T05:32:04.866Z,4.00
2022-10-25T05:33:05.026Z,0.00
2022-10-25T05:34:04.852Z,0.00
2022-10-25T05:35:04.822Z,4.00
2022-10-25T05:36:04.802Z,4.00
2022-10-25T05:37:04.789Z,4.00
2022-10-25T05:38:04.794Z,4.00
2022-10-25T05:39:04.790Z,4.00
2022-10-25T05:40:04.759Z,4.00
2022-10-25T05:41:04.743Z,4.00
2022-10-25T05:42:04.747Z,4.00
2022-10-25T05:43:04.718Z,4.00
2022-10-25T05:44:04.743Z,8.00
2022-10-25T05:45:04.701Z,12.00
2022-10-25T05:46:04.700Z,8.00
2022-10-25T05:47:04.733Z,12.00
2022-10-25T05:48:04.695Z,12.00
2022-10-25T05:49:04.695Z,12.00
2022-10-25T05:50:04.692Z,16.00
2022-10-25T05:51:14.459Z,16.00
2022-10-25T05:52:05.641Z,16.00
2022-10-25T05:53:04.630Z,16.00
2022-10-25T05:54:04.626Z,16.00
2022-10-25T05:55:04.592Z,20.00
2022-10-25T05:56:04.612Z,24.00
2022-10-25T05:57:04.570Z,24.00
2022-10-25T05:58:04.564Z,28.00
2022-10-25T05:59:04.545Z,28.00
2022-10-25T06:00:04.564Z,32.00
2022-10-25T06:01:04.635Z,36.00
2022-10-25T06:02:04.624Z,36.00
2022-10-25T06:03:04.501Z,40.00
2022-10-25T06:04:04.485Z,40.00
2022-10-25T06:05:04.481Z,40.00
2022-10-25T06:06:04.510Z,44.00
2022-10-25T06:07:04.583Z,44.00
2022-10-25T06:08:04.477Z,48.00
2022-10-25T06:09:04.483Z,48.00
2022-10-25T06:10:09.581Z,52.00
2022-10-25T06:11:04.419Z,56.00
2022-10-25T06:12:07.389Z,60.00
2022-10-25T06:13:04.407Z,64.00
2022-10-25T06:14:04.402Z,68.00
2022-10-25T06:15:04.368Z,72.00
2022-10-25T06:16:04.358Z,80.00
2022-10-25T06:17:04.380Z,84.00
2022-10-25T06:18:04.355Z,88.00
2022-10-25T06:19:04.332Z,88.00
2022-10-25T06:20:04.311Z,92.00
2022-10-25T06:21:04.319Z,96.00
2022-10-25T06:22:04.440Z,100.00
2022-10-25T06:23:06.982Z,104.00
2022-10-25T06:24:04.278Z,112.00
2022-10-25T06:25:04.283Z,112.00
2022-10-25T06:26:04.243Z,116.00
2022-10-25T06:27:04.320Z,120.00
2022-10-25T06:28:04.258Z,124.00
2022-10-25T06:29:04.214Z,124.00
2022-10-25T06:30:04.220Z,124.00
2022-10-25T06:31:04.220Z,124.00
2022-10-25T06:32:04.221Z,124.00
2022-10-25T06:33:04.231Z,132.00
2022-10-25T06:34:04.193Z,136.00
2022-10-25T06:35:04.176Z,136.00
2022-10-25T06:36:04.154Z,144.00
2022-10-25T06:37:04.164Z,148.00
2022-10-25T06:38:04.113Z,152.00
2022-10-25T06:39:06.748Z,156.00
2022-10-25T06:40:04.117Z,168.00
2022-10-25T06:41:04.106Z,180.00
2022-10-25T06:42:04.102Z,188.00
2022-10-25T06:43:04.096Z,196.00
2022-10-25T06:44:06.504Z,200.00
2022-10-25T06:45:04.074Z,204.00
2022-10-25T06:46:04.069Z,196.00
2022-10-25T06:47:16.877Z,172.00
2022-10-25T06:48:05.013Z,172.00
2022-10-25T06:49:04.034Z,172.00
2022-10-25T06:50:04.368Z,180.00
2022-10-25T06:51:03.999Z,184.00
2022-10-25T06:52:03.992Z,196.00
2022-10-25T06:53:03.965Z,204.00
2022-10-25T06:54:03.965Z,216.00
2022-10-25T06:55:03.973Z,220.00
2022-10-25T06:56:04.980Z,216.00
2022-10-25T06:57:03.988Z,208.00
2022-10-25T06:58:03.894Z,208.00
2022-10-25T06:59:03.898Z,212.00
2022-10-25T07:00:03.914Z,216.00
2022-10-25T07:01:04.198Z,216.00
2022-10-25T07:02:03.993Z,220.00
2022-10-25T07:03:03.876Z,216.00
2022-10-25T07:04:03.833Z,232.00
2022-10-25T07:05:03.827Z,244.00
2022-10-25T07:06:03.846Z,228.00
2022-10-25T07:07:03.795Z,240.00
2022-10-25T07:08:03.824Z,252.00
2022-10-25T07:09:03.783Z,264.00
2022-10-25T07:10:03.831Z,260.00
2022-10-25T07:11:03.768Z,264.00
2022-10-25T07:12:06.518Z,256.00
2022-10-25T07:13:04.732Z,248.00
2022-10-25T07:14:03.728Z,280.00
2022-10-25T07:15:03.861Z,264.00
2022-10-25T07:16:03.717Z,272.00
2022-10-25T07:17:03.984Z,248.00
2022-10-25T07:18:03.701Z,288.00
2022-10-25T07:19:03.794Z,248.00
2022-10-25T07:20:03.654Z,264.00
2022-10-25T07:21:03.663Z,256.00
2022-10-25T07:22:03.687Z,260.00
2022-10-25T07:23:06.634Z,268.00
2022-10-25T07:24:03.622Z,280.00
2022-10-25T07:25:03.661Z,292.00
2022-10-25T07:26:03.605Z,296.00
2022-10-25T07:27:03.606Z,300.00
2022-10-25T07:28:03.592Z,312.00
2022-10-25T07:29:03.555Z,352.00
2022-10-25T07:30:03.557Z,368.00
2022-10-25T07:31:03.538Z,392.00
2022-10-25T07:32:03.530Z,388.00
2022-10-25T07:33:03.566Z,372.00
2022-10-25T07:34:03.545Z,388.00
2022-10-25T07:35:03.566Z,408.00
2022-10-25T07:36:11.265Z,400.00
2022-10-25T07:37:04.487Z,396.00
2022-10-25T07:38:03.476Z,400.00
2022-10-25T07:39:03.465Z,396.00
2022-10-25T07:40:03.448Z,400.00
2022-10-25T07:41:03.424Z,384.00
2022-10-25T07:42:03.439Z,404.00
2022-10-25T07:43:03.432Z,396.00
2022-10-25T07:44:03.401Z,380.00
2022-10-25T07:45:03.392Z,364.00
2022-10-25T07:46:03.377Z,380.00
2022-10-25T07:47:03.394Z,360.00
2022-10-25T07:48:03.355Z,416.00
2022-10-25T07:49:03.444Z,408.00
2022-10-25T07:50:03.332Z,436.00
2022-10-25T07:51:03.339Z,440.00
2022-10-25T07:52:03.303Z,376.00
2022-10-25T07:53:03.292Z,392.00
2022-10-25T07:54:03.302Z,372.00
2022-10-25T07:55:03.314Z,356.00
2022-10-25T07:56:03.266Z,332.00
2022-10-25T07:57:03.281Z,332.00
2022-10-25T07:58:03.259Z,328.00
2022-10-25T07:59:03.247Z,324.00
2022-10-25T08:00:03.270Z,300.00
2022-10-25T08:01:03.315Z,300.00
2022-10-25T08:02:03.217Z,300.00
2022-10-25T08:03:03.242Z,300.00
2022-10-25T08:04:03.173Z,368.00
2022-10-25T08:05:03.182Z,348.00
2022-10-25T08:06:03.151Z,356.00
2022-10-25T08:07:03.151Z,364.00
2022-10-25T08:08:03.128Z,416.00
2022-10-25T08:09:14.262Z,488.00
2022-10-25T08:10:03.109Z,496.00
2022-10-25T08:11:03.111Z,424.00
2022-10-25T08:12:03.086Z,440.00
2022-10-25T08:13:03.197Z,456.00
2022-10-25T08:14:03.106Z,436.00
2022-10-25T08:15:03.071Z,464.00
2022-10-25T08:16:03.046Z,468.00
2022-10-25T08:17:03.044Z,532.00
2022-10-25T08:18:03.022Z,528.00
2022-10-25T08:19:03.192Z,464.00
2022-10-25T08:20:03.003Z,456.00
2022-10-25T08:21:03.873Z,464.00
2022-10-25T08:22:02.979Z,484.00
2022-10-25T08:23:02.974Z,512.00
2022-10-25T08:24:02.959Z,540.00
2022-10-25T08:25:03.151Z,504.00
2022-10-25T08:26:02.940Z,504.00
2022-10-25T08:27:02.947Z,512.00
2022-10-25T08:28:02.918Z,544.00
2022-10-25T08:29:02.900Z,572.00
2022-10-25T08:30:02.893Z,596.00
2022-10-25T08:31:02.947Z,600.00
2022-10-25T08:32:02.883Z,588.00
2022-10-25T08:33:02.885Z,572.00
2022-10-25T08:34:02.942Z,572.00
2022-10-25T08:35:02.838Z,576.00
2022-10-25T08:36:02.834Z,576.00
2022-10-25T08:37:02.864Z,572.00
2022-10-25T08:38:02.822Z,580.00
2022-10-25T08:39:02.791Z,592.00
2022-10-25T08:40:02.780Z,604.00
2022-10-25T08:41:02.776Z,600.00
2022-10-25T08:42:02.858Z,560.00
2022-10-25T08:43:02.783Z,560.00
2022-10-25T08:44:02.754Z,532.00
2022-10-25T08:45:02.759Z,464.00
2022-10-25T08:46:02.737Z,420.00
2022-10-25T08:47:02.734Z,348.00
2022-10-25T08:48:02.711Z,312.00
2022-10-25T08:49:02.684Z,308.00
2022-10-25T08:50:02.677Z,304.00
2022-10-25T08:51:02.662Z,320.00
2022-10-25T08:52:02.665Z,336.00
2022-10-25T08:53:02.677Z,380.00
2022-10-25T08:54:02.639Z,324.00
2022-10-25T08:55:05.519Z,336.00
2022-10-25T08:56:16.045Z,360.00
2022-10-25T08:57:15.087Z,368.00
2022-10-25T08:58:03.621Z,368.00
2022-10-25T08:59:02.594Z,388.00
2022-10-25T09:00:02.590Z,468.00
2022-10-25T09:01:02.702Z,448.00
2022-10-25T09:02:02.711Z,468.00
2022-10-25T09:03:02.630Z,444.00
2022-10-25T09:04:02.525Z,536.00
2022-10-25T09:05:02.536Z,464.00
2022-10-25T09:06:02.522Z,452.00
2022-10-25T09:07:02.535Z,460.00
2022-10-25T09:08:02.504Z,456.00
2022-10-25T09:09:02.540Z,460.00
2022-10-25T09:10:02.482Z,476.00
2022-10-25T09:11:02.449Z,488.00
2022-10-25T09:12:02.441Z,460.00
2022-10-25T09:13:04.786Z,436.00
2022-10-25T09:14:02.497Z,436.00
2022-10-25T09:15:02.407Z,436.00
2022-10-25T09:16:02.402Z,428.00
2022-10-25T09:17:02.376Z,412.00
2022-10-25T09:18:02.396Z,396.00
2022-10-25T09:19:02.395Z,404.00
2022-10-25T09:20:02.435Z,412.00
2022-10-25T09:21:02.368Z,408.00
2022-10-25T09:22:02.319Z,416.00
2022-10-25T09:23:02.310Z,424.00
2022-10-25T09:24:02.309Z,416.00
2022-10-25T09:25:02.339Z,412.00
2022-10-25T09:26:02.277Z,420.00
2022-10-25T09:27:02.311Z,416.00
2022-10-25T09:28:02.388Z,408.00
2022-10-25T09:29:02.243Z,408.00
2022-10-25T09:30:05.144Z,408.00
2022-10-25T09:31:02.249Z,400.00
2022-10-25T09:32:02.221Z,404.00
2022-10-25T09:33:02.211Z,408.00
2022-10-25T09:34:04.231Z,408.00
2022-10-25T09:35:02.195Z,404.00
2022-10-25T09:36:02.181Z,404.00
2022-10-25T09:37:02.185Z,376.00
2022-10-25T09:38:02.149Z,376.00
2022-10-25T09:39:02.159Z,360.00
2022-10-25T09:40:02.134Z,380.00
2022-10-25T09:41:02.117Z,372.00
2022-10-25T09:42:02.115Z,376.00
2022-10-25T09:43:02.197Z,368.00
2022-10-25T09:44:02.140Z,364.00
2022-10-25T09:45:02.067Z,352.00
2022-10-25T09:46:02.059Z,356.00
2022-10-25T09:47:02.076Z,368.00
2022-10-25T09:48:02.054Z,368.00
2022-10-25T09:49:02.081Z,372.00
2022-10-25T09:50:02.033Z,360.00
2022-10-25T09:51:02.018Z,384.00
2022-10-25T09:52:01.993Z,480.00
2022-10-25T09:53:01.993Z,460.00
2022-10-25T09:54:01.977Z,416.00
2022-10-25T09:55:01.963Z,416.00
2022-10-25T09:56:01.991Z,432.00
2022-10-25T09:57:02.011Z,512.00
2022-10-25T09:58:01.923Z,612.00
2022-10-25T09:59:01.939Z,528.00
2022-10-25T10:00:01.917Z,472.00
2022-10-25T10:01:01.957Z,448.00
2022-10-25T10:02:02.100Z,412.00
2022-10-25T10:03:01.919Z,348.00
2022-10-25T10:04:01.889Z,324.00
2022-10-25T10:05:01.851Z,312.00
2022-10-25T10:06:01.841Z,300.00
2022-10-25T10:07:01.847Z,288.00
2022-10-25T10:08:01.847Z,268.00
2022-10-25T10:09:01.856Z,240.00
2022-10-25T10:10:01.830Z,216.00
2022-10-25T10:11:01.800Z,200.00
2022-10-25T10:12:01.771Z,192.00
2022-10-25T10:13:01.786Z,196.00
2022-10-25T10:14:03.934Z,208.00
2022-10-25T10:15:01.759Z,228.00
2022-10-25T10:16:01.731Z,244.00
2022-10-25T10:17:01.826Z,252.00
2022-10-25T10:18:01.744Z,260.00
2022-10-25T10:19:01.696Z,272.00
2022-10-25T10:20:01.752Z,284.00
2022-10-25T10:21:01.677Z,296.00
2022-10-25T10:22:01.676Z,312.00
2022-10-25T10:23:02.838Z,312.00
2022-10-25T10:24:01.651Z,304.00
2022-10-25T10:25:01.627Z,300.00
2022-10-25T10:26:01.696Z,304.00
2022-10-25T10:27:01.657Z,296.00
2022-10-25T10:28:01.643Z,272.00
2022-10-25T10:29:04.186Z,248.00
2022-10-25T10:30:01.571Z,228.00
2022-10-25T10:31:01.624Z,216.00
2022-10-25T10:32:01.735Z,216.00
2022-10-25T10:33:01.659Z,228.00
2022-10-25T10:34:02.171Z,248.00
2022-10-25T10:35:01.544Z,276.00
2022-10-25T10:36:01.509Z,288.00
2022-10-25T10:37:01.490Z,296.00
2022-10-25T10:38:01.496Z,300.00
2022-10-25T10:39:01.500Z,300.00
2022-10-25T10:40:01.500Z,296.00
2022-10-25T10:41:01.489Z,280.00
2022-10-25T10:42:01.443Z,284.00
2022-10-25T10:43:01.430Z,304.00
2022-10-25T10:44:02.167Z,304.00
2022-10-25T10:45:01.463Z,304.00
2022-10-25T10:46:01.467Z,308.00
2022-10-25T10:47:01.420Z,312.00
2022-10-25T10:48:01.433Z,300.00
2022-10-25T10:49:01.386Z,292.00
2022-10-25T10:50:01.352Z,304.00
2022-10-25T10:51:01.359Z,304.00
2022-10-25T10:52:01.359Z,316.00
2022-10-25T10:53:01.329Z,328.00
2022-10-25T10:54:01.310Z,352.00
2022-10-25T10:55:01.338Z,368.00
2022-10-25T10:56:01.330Z,364.00
2022-10-25T10:57:01.360Z,360.00
2022-10-25T10:58:01.296Z,356.00
2022-10-25T10:59:01.296Z,364.00
2022-10-25T11:00:01.241Z,396.00
2022-10-25T11:01:01.404Z,420.00
2022-10-25T11:02:01.425Z,448.00
2022-10-25T11:03:01.226Z,480.00
2022-10-25T11:04:01.389Z,532.00
2022-10-25T11:05:01.202Z,524.00
2022-10-25T11:06:01.192Z,492.00
2022-10-25T11:07:01.303Z,500.00
2022-10-25T11:08:01.198Z,556.00
2022-10-25T11:09:01.210Z,508.00
2022-10-25T11:10:01.129Z,692.00
2022-10-25T11:11:01.141Z,712.00
2022-10-25T11:12:01.198Z,652.00
2022-10-25T11:13:01.134Z,736.00
2022-10-25T11:14:01.126Z,724.00
2022-10-25T11:15:01.092Z,612.00
2022-10-25T11:16:01.155Z,520.00
2022-10-25T11:17:01.051Z,580.00
2022-10-25T11:18:01.128Z,728.00
2022-10-25T11:19:01.030Z,660.00
2022-10-25T11:20:01.072Z,600.00
2022-10-25T11:21:01.069Z,556.00
2022-10-25T11:22:00.995Z,444.00
2022-10-25T11:23:04.299Z,440.00
2022-10-25T11:24:00.992Z,412.00
2022-10-25T11:25:00.975Z,364.00
2022-10-25T11:26:01.014Z,348.00
2022-10-25T11:27:01.053Z,360.00
2022-10-25T11:28:00.931Z,356.00
2022-10-25T11:29:00.957Z,356.00
2022-10-25T11:30:00.906Z,364.00
2022-10-25T11:31:00.934Z,392.00
2022-10-25T11:32:00.903Z,404.00
2022-10-25T11:33:00.911Z,412.00
2022-10-25T11:34:00.884Z,424.00
2022-10-25T11:35:00.866Z,424.00
2022-10-25T11:36:00.866Z,428.00
2022-10-25T11:37:00.838Z,428.00
2022-10-25T11:38:00.856Z,424.00
2022-10-25T11:39:00.882Z,420.00
2022-10-25T11:40:00.795Z,428.00
2022-10-25T11:41:00.821Z,444.00
2022-10-25T11:42:00.781Z,468.00
2022-10-25T11:43:00.900Z,484.00
2022-10-25T11:44:00.785Z,520.00
2022-10-25T11:45:00.796Z,492.00
2022-10-25T11:46:00.768Z,472.00
2022-10-25T11:47:00.734Z,448.00
2022-10-25T11:48:00.725Z,428.00
2022-10-25T11:49:00.712Z,420.00
2022-10-25T11:50:00.726Z,404.00
2022-10-25T11:51:00.699Z,380.00
2022-10-25T11:52:00.682Z,348.00
2022-10-25T11:53:00.682Z,320.00
2022-10-25T11:54:00.656Z,296.00
2022-10-25T11:55:00.668Z,292.00
2022-10-25T11:56:00.628Z,288.00
2022-10-25T11:57:00.635Z,292.00
2022-10-25T11:58:04.280Z,304.00
2022-10-25T11:59:00.706Z,316.00
2022-10-25T12:00:00.595Z,328.00
2022-10-25T12:01:00.610Z,360.00
2022-10-25T12:02:00.555Z,448.00
2022-10-25T12:03:00.599Z,456.00
2022-10-25T12:04:00.555Z,452.00
2022-10-25T12:05:00.528Z,472.00
2022-10-25T12:06:00.643Z,432.00
2022-10-25T12:07:00.496Z,448.00
2022-10-25T12:08:00.487Z,412.00
2022-10-25T12:09:00.560Z,468.00
2022-10-25T12:10:00.500Z,452.00
2022-10-25T12:11:00.476Z,452.00
2022-10-25T12:12:00.448Z,576.00
2022-10-25T12:13:00.429Z,504.00
2022-10-25T12:14:00.461Z,452.00
2022-10-25T12:15:00.550Z,480.00
2022-10-25T12:16:00.406Z,516.00
2022-10-25T12:17:00.385Z,532.00
2022-10-25T12:18:00.395Z,568.00
2022-10-25T12:19:00.364Z,484.00
2022-10-25T12:20:00.507Z,436.00
2022-10-25T12:21:00.346Z,472.00
2022-10-25T12:22:01.970Z,428.00
2022-10-25T12:23:00.356Z,608.00
2022-10-25T12:24:00.331Z,420.00
2022-10-25T12:25:00.348Z,412.00
2022-10-25T12:26:00.377Z,452.00
2022-10-25T12:27:00.308Z,460.00
2022-10-25T12:28:00.572Z,468.00
2022-10-25T12:29:00.282Z,528.00
2022-10-25T12:30:00.268Z,408.00
2022-10-25T12:31:00.344Z,448.00
2022-10-25T12:32:00.226Z,452.00
2022-10-25T12:33:00.228Z,544.00
2022-10-25T12:34:00.218Z,656.00
2022-10-25T12:35:00.217Z,496.00
2022-10-25T12:36:00.346Z,508.00
2022-10-25T12:37:00.173Z,496.00
2022-10-25T12:38:00.170Z,584.00
2022-10-25T12:39:00.162Z,496.00
2022-10-25T12:40:00.174Z,460.00
2022-10-25T12:41:00.139Z,488.00
2022-10-25T12:42:00.133Z,504.00
2022-10-25T12:43:00.117Z,460.00
2022-10-25T12:44:00.097Z,476.00
2022-10-25T12:45:00.124Z,456.00
2022-10-25T12:46:00.085Z,344.00
2022-10-25T12:47:00.165Z,276.00
2022-10-25T12:48:00.098Z,276.00
2022-10-25T12:49:00.049Z,276.00
2022-10-25T12:50:00.031Z,280.00
2022-10-25T12:51:00.048Z,300.00
2022-10-25T12:52:00.005Z,308.00